sensor_id;sensor_type;location;lat;lon;timestamp;temperature;humidity
54124;DHT22;55741;53.252;5.788;2023-11-21T00:01:05;10.20;99.90
54124;DHT22;55741;53.252;5.788;2023-11-21T00:03:31;10.30;99.90
54124;DHT22;55741;53.252;5.788;2023-11-21T00:05:57;10.20;99.90
54124;DHT22;55741;53.252;5.788;2023-11-21T00:08:23;10.30;99.90
54124;DHT22;55741;53.252;5.788;2023-11-21T00:10:49;10.20;99.90
54124;DHT22;55741;53.252;5.788;2023-11-21T00:13:16;10.20;99.90
54124;DHT22;55741;53.252;5.788;2023-11-21T00:15:42;10.20;99.90
54124;DHT22;55741;53.252;5.788;2023-11-21T00:18:08;10.20;99.90
54124;DHT22;55741;53.252;5.788;2023-11-21T00:20:34;10.30;99.90
54124;DHT22;55741;53.252;5.788;2023-11-21T00:23:00;10.20;99.90
54124;DHT22;55741;53.252;5.788;2023-11-21T00:25:28;10.30;99.90
54124;DHT22;55741;53.252;5.788;2023-11-21T00:27:54;10.20;99.90
54124;DHT22;55741;53.252;5.788;2023-11-21T00:30:19;10.20;99.90
54124;DHT22;55741;53.252;5.788;2023-11-21T00:32:48;10.20;99.90
54124;DHT22;55741;53.252;5.788;2023-11-21T00:35:13;10.30;99.90
54124;DHT22;55741;53.252;5.788;2023-11-21T00:37:39;10.20;99.90
54124;DHT22;55741;53.252;5.788;2023-11-21T00:40:06;10.20;99.90
54124;DHT22;55741;53.252;5.788;2023-11-21T00:42:32;10.20;99.90
54124;DHT22;55741;53.252;5.788;2023-11-21T00:44:59;10.30;99.90
54124;DHT22;55741;53.252;5.788;2023-11-21T00:47:25;10.20;99.90
54124;DHT22;55741;53.252;5.788;2023-11-21T00:49:51;10.20;99.90
54124;DHT22;55741;53.252;5.788;2023-11-21T00:52:17;10.30;99.90
54124;DHT22;55741;53.252;5.788;2023-11-21T00:54:43;10.30;99.90
54124;DHT22;55741;53.252;5.788;2023-11-21T00:57:09;10.20;99.90
54124;DHT22;55741;53.252;5.788;2023-11-21T00:59:36;10.20;99.90
54124;DHT22;55741;53.252;5.788;2023-11-21T01:02:02;10.20;99.90
54124;DHT22;55741;53.252;5.788;2023-11-21T01:04:31;10.20;99.90
54124;DHT22;55741;53.252;5.788;2023-11-21T01:06:59;10.20;99.90
54124;DHT22;55741;53.252;5.788;2023-11-21T01:09:26;10.20;99.90
54124;DHT22;55741;53.252;5.788;2023-11-21T01:11:52;10.20;99.90
54124;DHT22;55741;53.252;5.788;2023-11-21T01:14:19;10.20;99.90
54124;DHT22;55741;53.252;5.788;2023-11-21T01:16:45;10.30;99.90
54124;DHT22;55741;53.252;5.788;2023-11-21T01:19:11;10.20;99.90
54124;DHT22;55741;53.252;5.788;2023-11-21T01:21:37;10.30;99.90
54124;DHT22;55741;53.252;5.788;2023-11-21T01:24:03;10.20;99.90
54124;DHT22;55741;53.252;5.788;2023-11-21T01:26:31;10.20;99.90
54124;DHT22;55741;53.252;5.788;2023-11-21T01:28:56;10.30;99.90
54124;DHT22;55741;53.252;5.788;2023-11-21T01:31:22;10.30;99.90
54124;DHT22;55741;53.252;5.788;2023-11-21T01:33:49;10.40;99.90
54124;DHT22;55741;53.252;5.788;2023-11-21T01:36:14;10.40;99.90
54124;DHT22;55741;53.252;5.788;2023-11-21T01:38:40;10.40;99.90
54124;DHT22;55741;53.252;5.788;2023-11-21T01:41:07;10.40;99.90
54124;DHT22;55741;53.252;5.788;2023-11-21T01:43:33;10.40;99.90
54124;DHT22;55741;53.252;5.788;2023-11-21T01:45:59;10.40;99.90
54124;DHT22;55741;53.252;5.788;2023-11-21T01:48:27;10.50;99.90
54124;DHT22;55741;53.252;5.788;2023-11-21T01:50:53;10.50;99.90
54124;DHT22;55741;53.252;5.788;2023-11-21T01:53:19;10.50;99.90
54124;DHT22;55741;53.252;5.788;2023-11-21T01:55:46;10.50;99.90
54124;DHT22;55741;53.252;5.788;2023-11-21T01:58:12;10.50;99.90
54124;DHT22;55741;53.252;5.788;2023-11-21T02:00:40;10.50;99.90
54124;DHT22;55741;53.252;5.788;2023-11-21T02:03:05;10.60;99.90
54124;DHT22;55741;53.252;5.788;2023-11-21T02:05:33;10.60;99.90
54124;DHT22;55741;53.252;5.788;2023-11-21T02:07:58;10.50;99.90
54124;DHT22;55741;53.252;5.788;2023-11-21T02:10:24;10.60;99.90
54124;DHT22;55741;53.252;5.788;2023-11-21T02:12:50;10.60;99.90
54124;DHT22;55741;53.252;5.788;2023-11-21T02:15:16;10.60;99.90
54124;DHT22;55741;53.252;5.788;2023-11-21T02:17:50;10.60;99.90
54124;DHT22;55741;53.252;5.788;2023-11-21T02:20:17;10.60;99.90
54124;DHT22;55741;53.252;5.788;2023-11-21T02:22:56;10.60;99.90
54124;DHT22;55741;53.252;5.788;2023-11-21T02:25:27;10.60;99.90
54124;DHT22;55741;53.252;5.788;2023-11-21T02:27:58;10.60;99.90
54124;DHT22;55741;53.252;5.788;2023-11-21T02:30:24;10.60;99.90
54124;DHT22;55741;53.252;5.788;2023-11-21T02:33:00;10.60;99.90
54124;DHT22;55741;53.252;5.788;2023-11-21T02:35:26;10.60;99.90
54124;DHT22;55741;53.252;5.788;2023-11-21T02:37:53;10.60;99.90
54124;DHT22;55741;53.252;5.788;2023-11-21T02:40:19;10.60;99.90
54124;DHT22;55741;53.252;5.788;2023-11-21T02:42:46;10.50;99.90
54124;DHT22;55741;53.252;5.788;2023-11-21T02:45:14;10.60;99.90
54124;DHT22;55741;53.252;5.788;2023-11-21T02:47:45;10.60;99.90
54124;DHT22;55741;53.252;5.788;2023-11-21T02:50:11;10.60;99.90
54124;DHT22;55741;53.252;5.788;2023-11-21T02:52:37;10.50;99.90
54124;DHT22;55741;53.252;5.788;2023-11-21T02:55:04;10.60;99.90
54124;DHT22;55741;53.252;5.788;2023-11-21T02:57:30;10.60;99.90
54124;DHT22;55741;53.252;5.788;2023-11-21T02:59:56;10.60;99.90
54124;DHT22;55741;53.252;5.788;2023-11-21T03:02:23;10.60;99.90
54124;DHT22;55741;53.252;5.788;2023-11-21T03:04:49;10.60;99.90
54124;DHT22;55741;53.252;5.788;2023-11-21T03:07:16;10.50;99.90
54124;DHT22;55741;53.252;5.788;2023-11-21T03:09:42;10.60;99.90
54124;DHT22;55741;53.252;5.788;2023-11-21T03:12:10;10.50;99.90
54124;DHT22;55741;53.252;5.788;2023-11-21T03:14:38;10.70;99.90
54124;DHT22;55741;53.252;5.788;2023-11-21T03:17:03;10.60;99.90
54124;DHT22;55741;53.252;5.788;2023-11-21T03:19:30;10.50;99.90
54124;DHT22;55741;53.252;5.788;2023-11-21T03:21:56;10.60;99.90
54124;DHT22;55741;53.252;5.788;2023-11-21T03:24:22;10.60;99.90
54124;DHT22;55741;53.252;5.788;2023-11-21T03:26:49;10.50;99.90
54124;DHT22;55741;53.252;5.788;2023-11-21T03:29:16;10.50;99.90
54124;DHT22;55741;53.252;5.788;2023-11-21T03:31:42;10.60;99.90
54124;DHT22;55741;53.252;5.788;2023-11-21T03:34:15;10.50;99.90
54124;DHT22;55741;53.252;5.788;2023-11-21T03:36:41;10.50;99.90
54124;DHT22;55741;53.252;5.788;2023-11-21T03:39:07;10.50;99.90
54124;DHT22;55741;53.252;5.788;2023-11-21T03:41:33;10.50;99.90
54124;DHT22;55741;53.252;5.788;2023-11-21T03:43:59;10.50;99.90
54124;DHT22;55741;53.252;5.788;2023-11-21T03:46:25;10.50;99.90
54124;DHT22;55741;53.252;5.788;2023-11-21T03:48:51;10.50;99.90
54124;DHT22;55741;53.252;5.788;2023-11-21T03:51:17;10.50;99.90
54124;DHT22;55741;53.252;5.788;2023-11-21T03:53:43;10.50;99.90
54124;DHT22;55741;53.252;5.788;2023-11-21T03:56:10;10.40;99.90
54124;DHT22;55741;53.252;5.788;2023-11-21T03:58:35;10.50;99.90
54124;DHT22;55741;53.252;5.788;2023-11-21T04:01:01;10.50;99.90
54124;DHT22;55741;53.252;5.788;2023-11-21T04:03:29;10.50;99.90
54124;DHT22;55741;53.252;5.788;2023-11-21T04:05:55;10.40;99.90
54124;DHT22;55741;53.252;5.788;2023-11-21T04:08:21;10.50;99.90
54124;DHT22;55741;53.252;5.788;2023-11-21T04:10:47;10.40;99.90
54124;DHT22;55741;53.252;5.788;2023-11-21T04:13:12;10.40;99.90
54124;DHT22;55741;53.252;5.788;2023-11-21T04:15:39;10.40;99.90
54124;DHT22;55741;53.252;5.788;2023-11-21T04:18:05;10.40;99.90
54124;DHT22;55741;53.252;5.788;2023-11-21T04:20:31;10.40;99.90
54124;DHT22;55741;53.252;5.788;2023-11-21T04:22:57;10.40;99.90
54124;DHT22;55741;53.252;5.788;2023-11-21T04:25:22;10.40;99.90
54124;DHT22;55741;53.252;5.788;2023-11-21T04:27:49;10.40;99.90
54124;DHT22;55741;53.252;5.788;2023-11-21T04:30:15;10.30;99.90
54124;DHT22;55741;53.252;5.788;2023-11-21T04:32:41;10.40;99.90
54124;DHT22;55741;53.252;5.788;2023-11-21T04:35:09;10.40;99.90
54124;DHT22;55741;53.252;5.788;2023-11-21T04:37:35;10.40;99.90
54124;DHT22;55741;53.252;5.788;2023-11-21T04:40:01;10.40;99.90
54124;DHT22;55741;53.252;5.788;2023-11-21T04:42:27;10.30;99.90
54124;DHT22;55741;53.252;5.788;2023-11-21T04:44:54;10.40;99.90
54124;DHT22;55741;53.252;5.788;2023-11-21T04:47:20;10.40;99.90
54124;DHT22;55741;53.252;5.788;2023-11-21T04:49:47;10.30;99.90
54124;DHT22;55741;53.252;5.788;2023-11-21T04:52:13;10.30;99.90
54124;DHT22;55741;53.252;5.788;2023-11-21T04:54:39;10.30;99.90
54124;DHT22;55741;53.252;5.788;2023-11-21T04:57:05;10.30;99.90
54124;DHT22;55741;53.252;5.788;2023-11-21T04:59:34;10.20;99.90
54124;DHT22;55741;53.252;5.788;2023-11-21T05:01:59;10.20;99.90
54124;DHT22;55741;53.252;5.788;2023-11-21T05:04:30;10.10;99.90
54124;DHT22;55741;53.252;5.788;2023-11-21T05:06:55;10.10;99.90
54124;DHT22;55741;53.252;5.788;2023-11-21T05:09:22;10.10;99.90
54124;DHT22;55741;53.252;5.788;2023-11-21T05:11:48;10.00;99.90
54124;DHT22;55741;53.252;5.788;2023-11-21T05:14:13;10.10;99.90
54124;DHT22;55741;53.252;5.788;2023-11-21T05:16:39;10.00;99.90
54124;DHT22;55741;53.252;5.788;2023-11-21T05:19:05;9.90;99.90
54124;DHT22;55741;53.252;5.788;2023-11-21T05:21:32;9.90;99.90
54124;DHT22;55741;53.252;5.788;2023-11-21T05:23:58;9.90;99.90
54124;DHT22;55741;53.252;5.788;2023-11-21T05:26:24;9.80;99.90
54124;DHT22;55741;53.252;5.788;2023-11-21T05:28:50;9.80;99.90
54124;DHT22;55741;53.252;5.788;2023-11-21T05:31:16;9.80;99.90
54124;DHT22;55741;53.252;5.788;2023-11-21T05:33:42;9.70;99.90
54124;DHT22;55741;53.252;5.788;2023-11-21T05:36:08;9.70;99.90
54124;DHT22;55741;53.252;5.788;2023-11-21T05:38:36;9.70;99.90
54124;DHT22;55741;53.252;5.788;2023-11-21T05:41:02;9.70;99.90
54124;DHT22;55741;53.252;5.788;2023-11-21T05:43:29;9.70;99.90
54124;DHT22;55741;53.252;5.788;2023-11-21T05:45:56;9.70;99.90
54124;DHT22;55741;53.252;5.788;2023-11-21T05:48:22;9.70;99.90
54124;DHT22;55741;53.252;5.788;2023-11-21T05:50:49;9.60;99.90
54124;DHT22;55741;53.252;5.788;2023-11-21T05:53:15;9.60;99.90
54124;DHT22;55741;53.252;5.788;2023-11-21T05:55:42;9.60;99.90
54124;DHT22;55741;53.252;5.788;2023-11-21T05:58:08;9.70;99.90
54124;DHT22;55741;53.252;5.788;2023-11-21T06:00:35;9.60;99.90
54124;DHT22;55741;53.252;5.788;2023-11-21T06:03:01;9.60;99.90
54124;DHT22;55741;53.252;5.788;2023-11-21T06:05:28;9.60;99.90
54124;DHT22;55741;53.252;5.788;2023-11-21T06:07:57;9.50;99.90
54124;DHT22;55741;53.252;5.788;2023-11-21T06:10:26;9.50;99.90
54124;DHT22;55741;53.252;5.788;2023-11-21T06:12:54;9.60;99.90
54124;DHT22;55741;53.252;5.788;2023-11-21T06:15:20;9.50;99.90
54124;DHT22;55741;53.252;5.788;2023-11-21T06:17:48;9.50;99.90
54124;DHT22;55741;53.252;5.788;2023-11-21T06:20:18;9.40;99.90
54124;DHT22;55741;53.252;5.788;2023-11-21T06:22:46;9.40;99.90
54124;DHT22;55741;53.252;5.788;2023-11-21T06:25:13;9.40;99.90
54124;DHT22;55741;53.252;5.788;2023-11-21T06:27:42;9.50;99.90
54124;DHT22;55741;53.252;5.788;2023-11-21T06:30:09;9.50;99.90
54124;DHT22;55741;53.252;5.788;2023-11-21T06:32:36;9.50;99.90
54124;DHT22;55741;53.252;5.788;2023-11-21T06:35:03;9.50;99.90
54124;DHT22;55741;53.252;5.788;2023-11-21T06:37:30;9.50;99.90
54124;DHT22;55741;53.252;5.788;2023-11-21T06:39:56;9.40;99.90
54124;DHT22;55741;53.252;5.788;2023-11-21T06:42:24;9.40;99.90
54124;DHT22;55741;53.252;5.788;2023-11-21T06:44:50;9.40;99.90
54124;DHT22;55741;53.252;5.788;2023-11-21T06:47:25;9.40;99.90
54124;DHT22;55741;53.252;5.788;2023-11-21T06:49:52;9.40;99.90
54124;DHT22;55741;53.252;5.788;2023-11-21T06:52:18;9.40;99.90
54124;DHT22;55741;53.252;5.788;2023-11-21T06:54:44;9.30;99.90
54124;DHT22;55741;53.252;5.788;2023-11-21T06:57:11;9.30;99.90
54124;DHT22;55741;53.252;5.788;2023-11-21T06:59:37;9.30;99.90
54124;DHT22;55741;53.252;5.788;2023-11-21T07:02:03;9.30;99.90
54124;DHT22;55741;53.252;5.788;2023-11-21T07:04:32;9.30;99.90
54124;DHT22;55741;53.252;5.788;2023-11-21T07:07:00;9.30;99.90
54124;DHT22;55741;53.252;5.788;2023-11-21T07:09:26;9.30;99.90
54124;DHT22;55741;53.252;5.788;2023-11-21T07:11:52;9.20;99.90
54124;DHT22;55741;53.252;5.788;2023-11-21T07:14:18;9.30;99.90
54124;DHT22;55741;53.252;5.788;2023-11-21T07:16:45;9.30;99.90
54124;DHT22;55741;53.252;5.788;2023-11-21T07:19:11;9.30;99.90
54124;DHT22;55741;53.252;5.788;2023-11-21T07:21:39;9.30;99.90
54124;DHT22;55741;53.252;5.788;2023-11-21T07:24:06;9.30;99.90
54124;DHT22;55741;53.252;5.788;2023-11-21T07:26:33;9.30;99.90
54124;DHT22;55741;53.252;5.788;2023-11-21T07:29:00;9.30;99.90
54124;DHT22;55741;53.252;5.788;2023-11-21T07:31:26;9.30;99.90
54124;DHT22;55741;53.252;5.788;2023-11-21T07:33:52;9.30;99.90
54124;DHT22;55741;53.252;5.788;2023-11-21T07:36:19;9.30;99.90
54124;DHT22;55741;53.252;5.788;2023-11-21T07:38:46;9.20;99.90
54124;DHT22;55741;53.252;5.788;2023-11-21T07:41:12;9.30;99.90
54124;DHT22;55741;53.252;5.788;2023-11-21T07:43:41;9.20;99.90
54124;DHT22;55741;53.252;5.788;2023-11-21T07:46:08;9.30;99.90
54124;DHT22;55741;53.252;5.788;2023-11-21T07:48:34;9.20;99.90
54124;DHT22;55741;53.252;5.788;2023-11-21T07:51:02;9.20;99.90
54124;DHT22;55741;53.252;5.788;2023-11-21T07:53:29;9.30;99.90
54124;DHT22;55741;53.252;5.788;2023-11-21T07:55:56;9.20;99.90
54124;DHT22;55741;53.252;5.788;2023-11-21T07:58:22;9.30;99.90
54124;DHT22;55741;53.252;5.788;2023-11-21T08:00:50;9.20;99.90
54124;DHT22;55741;53.252;5.788;2023-11-21T08:03:16;9.20;99.90
54124;DHT22;55741;53.252;5.788;2023-11-21T08:05:42;9.20;99.90
54124;DHT22;55741;53.252;5.788;2023-11-21T08:08:09;9.20;99.90
54124;DHT22;55741;53.252;5.788;2023-11-21T08:10:35;9.20;99.90
54124;DHT22;55741;53.252;5.788;2023-11-21T08:13:02;9.20;99.90
54124;DHT22;55741;53.252;5.788;2023-11-21T08:15:29;9.20;99.90
54124;DHT22;55741;53.252;5.788;2023-11-21T08:17:58;9.20;99.90
54124;DHT22;55741;53.252;5.788;2023-11-21T08:20:24;9.20;99.90
54124;DHT22;55741;53.252;5.788;2023-11-21T08:22:51;9.20;99.90
54124;DHT22;55741;53.252;5.788;2023-11-21T08:25:18;9.10;99.90
54124;DHT22;55741;53.252;5.788;2023-11-21T08:27:46;9.20;99.90
54124;DHT22;55741;53.252;5.788;2023-11-21T08:30:12;9.20;99.90
54124;DHT22;55741;53.252;5.788;2023-11-21T08:32:40;9.20;99.90
54124;DHT22;55741;53.252;5.788;2023-11-21T08:35:07;9.20;99.90
54124;DHT22;55741;53.252;5.788;2023-11-21T08:37:33;9.20;99.90
54124;DHT22;55741;53.252;5.788;2023-11-21T08:40:04;9.20;99.90
54124;DHT22;55741;53.252;5.788;2023-11-21T08:42:34;9.20;99.90
54124;DHT22;55741;53.252;5.788;2023-11-21T08:45:00;9.20;99.90
54124;DHT22;55741;53.252;5.788;2023-11-21T08:47:26;9.20;99.90
54124;DHT22;55741;53.252;5.788;2023-11-21T08:49:52;9.20;99.90
54124;DHT22;55741;53.252;5.788;2023-11-21T08:52:19;9.20;99.90
54124;DHT22;55741;53.252;5.788;2023-11-21T08:54:51;9.20;99.90
54124;DHT22;55741;53.252;5.788;2023-11-21T08:57:25;9.20;99.90
54124;DHT22;55741;53.252;5.788;2023-11-21T08:59:51;9.20;99.90
54124;DHT22;55741;53.252;5.788;2023-11-21T09:02:21;9.20;99.90
54124;DHT22;55741;53.252;5.788;2023-11-21T09:04:50;9.20;99.90
54124;DHT22;55741;53.252;5.788;2023-11-21T09:07:19;9.20;99.90
54124;DHT22;55741;53.252;5.788;2023-11-21T09:09:48;9.20;99.90
54124;DHT22;55741;53.252;5.788;2023-11-21T09:12:14;9.20;99.90
54124;DHT22;55741;53.252;5.788;2023-11-21T09:14:40;9.20;99.90
54124;DHT22;55741;53.252;5.788;2023-11-21T09:17:06;9.20;99.90
54124;DHT22;55741;53.252;5.788;2023-11-21T09:19:42;9.20;99.90
54124;DHT22;55741;53.252;5.788;2023-11-21T09:22:16;9.30;99.90
54124;DHT22;55741;53.252;5.788;2023-11-21T09:24:42;9.30;99.90
54124;DHT22;55741;53.252;5.788;2023-11-21T09:27:08;9.30;99.90
54124;DHT22;55741;53.252;5.788;2023-11-21T09:29:35;9.30;99.90
54124;DHT22;55741;53.252;5.788;2023-11-21T09:32:03;9.50;99.90
54124;DHT22;55741;53.252;5.788;2023-11-21T09:34:28;9.50;99.90
54124;DHT22;55741;53.252;5.788;2023-11-21T09:36:54;9.60;99.90
54124;DHT22;55741;53.252;5.788;2023-11-21T09:39:20;9.70;99.90
54124;DHT22;55741;53.252;5.788;2023-11-21T09:45:21;9.90;99.90
54124;DHT22;55741;53.252;5.788;2023-11-21T09:47:38;9.90;99.90
54124;DHT22;55741;53.252;5.788;2023-11-21T09:50:05;10.00;99.90
54124;DHT22;55741;53.252;5.788;2023-11-21T09:52:45;10.00;99.90
54124;DHT22;55741;53.252;5.788;2023-11-21T09:55:15;10.00;99.90
54124;DHT22;55741;53.252;5.788;2023-11-21T09:57:45;9.90;99.90
54124;DHT22;55741;53.252;5.788;2023-11-21T10:00:11;9.90;99.90
54124;DHT22;55741;53.252;5.788;2023-11-21T10:02:38;9.90;99.90
54124;DHT22;55741;53.252;5.788;2023-11-21T10:05:06;9.90;99.90
54124;DHT22;55741;53.252;5.788;2023-11-21T10:07:35;9.80;99.90
54124;DHT22;55741;53.252;5.788;2023-11-21T10:10:05;9.80;99.90
54124;DHT22;55741;53.252;5.788;2023-11-21T10:12:32;9.80;99.90
54124;DHT22;55741;53.252;5.788;2023-11-21T10:14:58;9.80;99.90
54124;DHT22;55741;53.252;5.788;2023-11-21T10:17:27;9.80;99.90
54124;DHT22;55741;53.252;5.788;2023-11-21T10:19:57;9.70;99.90
54124;DHT22;55741;53.252;5.788;2023-11-21T10:22:24;9.70;99.90
54124;DHT22;55741;53.252;5.788;2023-11-21T10:24:50;9.70;99.90
54124;DHT22;55741;53.252;5.788;2023-11-21T10:27:16;9.60;99.90
54124;DHT22;55741;53.252;5.788;2023-11-21T10:29:42;9.60;99.90
54124;DHT22;55741;53.252;5.788;2023-11-21T10:32:08;9.50;99.90
54124;DHT22;55741;53.252;5.788;2023-11-21T10:34:34;9.50;99.90
54124;DHT22;55741;53.252;5.788;2023-11-21T10:37:11;9.50;99.90
54124;DHT22;55741;53.252;5.788;2023-11-21T10:39:39;9.50;99.90
54124;DHT22;55741;53.252;5.788;2023-11-21T10:42:08;9.40;99.90
54124;DHT22;55741;53.252;5.788;2023-11-21T10:44:34;9.40;99.90
54124;DHT22;55741;53.252;5.788;2023-11-21T10:47:00;9.40;99.90
54124;DHT22;55741;53.252;5.788;2023-11-21T10:49:26;9.30;99.90
54124;DHT22;55741;53.252;5.788;2023-11-21T10:51:56;9.40;99.90
54124;DHT22;55741;53.252;5.788;2023-11-21T10:54:23;9.40;99.90
54124;DHT22;55741;53.252;5.788;2023-11-21T10:56:53;9.40;99.90
54124;DHT22;55741;53.252;5.788;2023-11-21T10:59:19;9.40;99.90
54124;DHT22;55741;53.252;5.788;2023-11-21T11:01:47;9.40;99.90
54124;DHT22;55741;53.252;5.788;2023-11-21T11:04:18;9.50;99.90
54124;DHT22;55741;53.252;5.788;2023-11-21T11:06:52;9.50;99.90
54124;DHT22;55741;53.252;5.788;2023-11-21T11:09:19;9.60;99.90
54124;DHT22;55741;53.252;5.788;2023-11-21T11:11:48;9.50;99.90
54124;DHT22;55741;53.252;5.788;2023-11-21T11:14:14;9.60;99.90
54124;DHT22;55741;53.252;5.788;2023-11-21T11:16:41;9.60;99.90
54124;DHT22;55741;53.252;5.788;2023-11-21T11:19:09;9.70;99.90
54124;DHT22;55741;53.252;5.788;2023-11-21T11:22:00;9.80;99.90
54124;DHT22;55741;53.252;5.788;2023-11-21T11:30:04;10.00;99.90
54124;DHT22;55741;53.252;5.788;2023-11-21T11:38:33;10.10;99.90
54124;DHT22;55741;53.252;5.788;2023-11-21T11:41:04;10.20;99.90
54124;DHT22;55741;53.252;5.788;2023-11-21T11:43:31;10.30;99.90
54124;DHT22;55741;53.252;5.788;2023-11-21T11:46:10;10.40;99.90
54124;DHT22;55741;53.252;5.788;2023-11-21T11:48:40;10.40;99.90
54124;DHT22;55741;53.252;5.788;2023-11-21T11:51:10;10.30;99.90
54124;DHT22;55741;53.252;5.788;2023-11-21T11:53:44;10.20;99.90
54124;DHT22;55741;53.252;5.788;2023-11-21T11:56:31;10.20;99.90
54124;DHT22;55741;53.252;5.788;2023-11-21T11:59:01;10.20;99.90
54124;DHT22;55741;53.252;5.788;2023-11-21T12:01:33;10.20;99.90
54124;DHT22;55741;53.252;5.788;2023-11-21T12:06:43;10.30;99.90
54124;DHT22;55741;53.252;5.788;2023-11-21T12:09:22;10.50;99.90
54124;DHT22;55741;53.252;5.788;2023-11-21T12:11:50;10.50;99.90
54124;DHT22;55741;53.252;5.788;2023-11-21T12:14:17;10.50;99.90
54124;DHT22;55741;53.252;5.788;2023-11-21T12:16:44;10.60;99.90
54124;DHT22;55741;53.252;5.788;2023-11-21T12:19:11;10.60;99.90
54124;DHT22;55741;53.252;5.788;2023-11-21T12:21:38;10.50;99.90
54124;DHT22;55741;53.252;5.788;2023-11-21T12:24:07;10.50;99.90
54124;DHT22;55741;53.252;5.788;2023-11-21T12:26:40;10.30;99.90
54124;DHT22;55741;53.252;5.788;2023-11-21T12:29:06;10.30;99.90
54124;DHT22;55741;53.252;5.788;2023-11-21T12:31:33;10.30;99.90
54124;DHT22;55741;53.252;5.788;2023-11-21T12:34:00;10.30;99.90
54124;DHT22;55741;53.252;5.788;2023-11-21T12:36:26;10.10;99.90
54124;DHT22;55741;53.252;5.788;2023-11-21T12:38:54;10.10;99.90
54124;DHT22;55741;53.252;5.788;2023-11-21T12:41:20;9.90;99.90
54124;DHT22;55741;53.252;5.788;2023-11-21T12:43:47;9.80;99.90
54124;DHT22;55741;53.252;5.788;2023-11-21T12:46:13;9.80;99.90
54124;DHT22;55741;53.252;5.788;2023-11-21T12:48:44;9.80;99.90
54124;DHT22;55741;53.252;5.788;2023-11-21T12:51:12;9.70;99.90
54124;DHT22;55741;53.252;5.788;2023-11-21T12:53:40;9.80;99.90
54124;DHT22;55741;53.252;5.788;2023-11-21T12:56:13;9.70;99.90
54124;DHT22;55741;53.252;5.788;2023-11-21T12:58:45;9.70;99.90
54124;DHT22;55741;53.252;5.788;2023-11-21T13:01:13;9.70;99.90
54124;DHT22;55741;53.252;5.788;2023-11-21T13:03:46;9.80;99.90
54124;DHT22;55741;53.252;5.788;2023-11-21T13:06:15;9.80;99.90
54124;DHT22;55741;53.252;5.788;2023-11-21T13:08:41;9.80;99.90
54124;DHT22;55741;53.252;5.788;2023-11-21T13:11:11;9.80;99.90
54124;DHT22;55741;53.252;5.788;2023-11-21T13:13:40;9.80;99.90
54124;DHT22;55741;53.252;5.788;2023-11-21T13:16:07;10.00;99.90
54124;DHT22;55741;53.252;5.788;2023-11-21T13:18:34;10.00;99.90
54124;DHT22;55741;53.252;5.788;2023-11-21T13:21:01;9.90;99.90
54124;DHT22;55741;53.252;5.788;2023-11-21T13:23:34;9.90;99.90
54124;DHT22;55741;53.252;5.788;2023-11-21T13:26:01;9.90;99.90
54124;DHT22;55741;53.252;5.788;2023-11-21T13:28:30;9.80;99.90
54124;DHT22;55741;53.252;5.788;2023-11-21T13:30:59;9.80;99.90
54124;DHT22;55741;53.252;5.788;2023-11-21T13:33:43;9.70;99.90
54124;DHT22;55741;53.252;5.788;2023-11-21T13:36:15;9.70;99.90
54124;DHT22;55741;53.252;5.788;2023-11-21T13:38:49;9.60;99.90
54124;DHT22;55741;53.252;5.788;2023-11-21T13:41:15;9.60;99.90
54124;DHT22;55741;53.252;5.788;2023-11-21T13:43:41;9.50;99.90
54124;DHT22;55741;53.252;5.788;2023-11-21T13:46:09;9.50;99.90
54124;DHT22;55741;53.252;5.788;2023-11-21T13:48:50;9.50;99.90
54124;DHT22;55741;53.252;5.788;2023-11-21T13:51:21;9.40;99.90
54124;DHT22;55741;53.252;5.788;2023-11-21T13:53:56;9.40;99.90
54124;DHT22;55741;53.252;5.788;2023-11-21T13:56:22;9.30;99.90
54124;DHT22;55741;53.252;5.788;2023-11-21T13:58:52;9.20;99.90
54124;DHT22;55741;53.252;5.788;2023-11-21T14:01:24;9.20;99.90
54124;DHT22;55741;53.252;5.788;2023-11-21T14:04:05;9.20;99.90
54124;DHT22;55741;53.252;5.788;2023-11-21T14:06:47;9.10;99.90
54124;DHT22;55741;53.252;5.788;2023-11-21T14:09:20;9.10;99.90
54124;DHT22;55741;53.252;5.788;2023-11-21T14:11:56;9.10;99.90
54124;DHT22;55741;53.252;5.788;2023-11-21T14:14:25;9.10;99.90
54124;DHT22;55741;53.252;5.788;2023-11-21T14:16:52;9.00;99.90
54124;DHT22;55741;53.252;5.788;2023-11-21T14:19:18;9.00;99.90
54124;DHT22;55741;53.252;5.788;2023-11-21T14:21:45;9.00;99.90
54124;DHT22;55741;53.252;5.788;2023-11-21T14:24:12;8.90;99.90
54124;DHT22;55741;53.252;5.788;2023-11-21T14:26:44;8.80;99.90
54124;DHT22;55741;53.252;5.788;2023-11-21T14:29:20;8.70;99.90
54124;DHT22;55741;53.252;5.788;2023-11-21T14:31:47;8.70;99.90
54124;DHT22;55741;53.252;5.788;2023-11-21T14:34:14;8.60;99.90
54124;DHT22;55741;53.252;5.788;2023-11-21T14:36:41;8.50;99.90
54124;DHT22;55741;53.252;5.788;2023-11-21T14:39:07;8.50;99.90
54124;DHT22;55741;53.252;5.788;2023-11-21T14:41:36;8.50;99.90
54124;DHT22;55741;53.252;5.788;2023-11-21T14:44:04;8.50;99.90
54124;DHT22;55741;53.252;5.788;2023-11-21T14:46:32;8.50;99.90
54124;DHT22;55741;53.252;5.788;2023-11-21T14:49:00;8.40;99.90
54124;DHT22;55741;53.252;5.788;2023-11-21T14:51:51;8.50;99.90
54124;DHT22;55741;53.252;5.788;2023-11-21T14:54:31;8.50;99.90
54124;DHT22;55741;53.252;5.788;2023-11-21T14:57:10;8.40;99.90
54124;DHT22;55741;53.252;5.788;2023-11-21T14:59:52;8.40;99.90
54124;DHT22;55741;53.252;5.788;2023-11-21T15:02:23;8.40;99.90
54124;DHT22;55741;53.252;5.788;2023-11-21T15:05:09;8.40;99.90
54124;DHT22;55741;53.252;5.788;2023-11-21T15:07:40;8.40;99.90
54124;DHT22;55741;53.252;5.788;2023-11-21T15:10:07;8.40;99.90
54124;DHT22;55741;53.252;5.788;2023-11-21T15:12:38;8.40;99.90
54124;DHT22;55741;53.252;5.788;2023-11-21T15:15:07;8.40;99.90
54124;DHT22;55741;53.252;5.788;2023-11-21T15:17:36;8.30;99.90
54124;DHT22;55741;53.252;5.788;2023-11-21T15:20:03;8.30;99.90
54124;DHT22;55741;53.252;5.788;2023-11-21T15:22:32;8.30;99.90
54124;DHT22;55741;53.252;5.788;2023-11-21T15:24:58;8.20;99.90
54124;DHT22;55741;53.252;5.788;2023-11-21T15:27:25;8.20;99.90
54124;DHT22;55741;53.252;5.788;2023-11-21T15:29:53;8.10;99.90
54124;DHT22;55741;53.252;5.788;2023-11-21T15:32:19;8.10;99.90
54124;DHT22;55741;53.252;5.788;2023-11-21T15:34:45;8.00;99.90
54124;DHT22;55741;53.252;5.788;2023-11-21T15:37:12;8.00;99.90
54124;DHT22;55741;53.252;5.788;2023-11-21T15:39:38;7.90;99.90
54124;DHT22;55741;53.252;5.788;2023-11-21T15:42:05;7.90;99.90
54124;DHT22;55741;53.252;5.788;2023-11-21T15:44:32;7.80;99.90
54124;DHT22;55741;53.252;5.788;2023-11-21T15:46:59;7.70;99.90
54124;DHT22;55741;53.252;5.788;2023-11-21T15:49:25;7.70;99.90
54124;DHT22;55741;53.252;5.788;2023-11-21T15:51:53;7.70;99.90
54124;DHT22;55741;53.252;5.788;2023-11-21T15:54:20;7.60;99.90
54124;DHT22;55741;53.252;5.788;2023-11-21T15:56:51;7.60;99.90
54124;DHT22;55741;53.252;5.788;2023-11-21T15:59:25;7.50;99.90
54124;DHT22;55741;53.252;5.788;2023-11-21T16:01:59;7.60;99.90